Terminal Aerodrome Forecast
Issued by NWS Twin Cities, MN

Home | Current Version | Previous Version | Graphics & Text | Print | Product List | Glossary On
Versions: 1 2 3 4 5 6 7 8 9 10 11 12 13 14 15 16 17 18 19 20 21 22 23 24
000
FTUS43 KMPX 291720
TAFEAU
TAF
KEAU 291720Z 2918/3018 30009KT P6SM SCT020 OVC040
     FM292000 31010KT 6SM -SHRA BKN040
      TEMPO 2920/2924 3SM -TSRA BR SCT020 BKN035CB
     FM300000 30006KT P6SM VCSH SCT050 BKN120
     FM300400 32003KT P6SM SKC
     FM301200 35007KT P6SM BKN007 OVC015=

USA.gov is the U.S. government's official web portal to all federal, state and local government web resources and services.